sensor_id;sensor_type;location;lat;lon;timestamp;temperature;humidity
23497;DHT22;11925;48.122;11.560;2023-02-28T00:01:39;7.40;73.60
23497;DHT22;11925;48.122;11.560;2023-02-28T00:04:07;7.40;73.60
23497;DHT22;11925;48.122;11.560;2023-02-28T00:06:37;7.40;73.60
23497;DHT22;11925;48.122;11.560;2023-02-28T00:09:05;7.40;73.60
23497;DHT22;11925;48.122;11.560;2023-02-28T00:11:33;7.40;73.20
23497;DHT22;11925;48.122;11.560;2023-02-28T00:14:02;7.40;73.40
23497;DHT22;11925;48.122;11.560;2023-02-28T00:16:31;7.40;73.50
23497;DHT22;11925;48.122;11.560;2023-02-28T00:19:00;7.40;73.50
23497;DHT22;11925;48.122;11.560;2023-02-28T00:21:28;7.40;73.20
23497;DHT22;11925;48.122;11.560;2023-02-28T00:23:57;7.40;73.20
23497;DHT22;11925;48.122;11.560;2023-02-28T00:26:25;7.40;73.40
23497;DHT22;11925;48.122;11.560;2023-02-28T00:28:54;7.40;73.40
23497;DHT22;11925;48.122;11.560;2023-02-28T00:31:22;7.40;73.40
23497;DHT22;11925;48.122;11.560;2023-02-28T00:33:51;7.40;73.40
23497;DHT22;11925;48.122;11.560;2023-02-28T00:36:20;7.40;73.20
23497;DHT22;11925;48.122;11.560;2023-02-28T00:38:48;7.30;73.20
23497;DHT22;11925;48.122;11.560;2023-02-28T00:41:17;7.40;73.40
23497;DHT22;11925;48.122;11.560;2023-02-28T00:43:47;7.30;73.10
23497;DHT22;11925;48.122;11.560;2023-02-28T00:46:15;7.40;72.90
23497;DHT22;11925;48.122;11.560;2023-02-28T00:48:43;7.40;73.20
23497;DHT22;11925;48.122;11.560;2023-02-28T00:51:13;7.40;73.50
23497;DHT22;11925;48.122;11.560;2023-02-28T00:53:41;7.40;73.40
23497;DHT22;11925;48.122;11.560;2023-02-28T00:56:10;7.40;73.60
23497;DHT22;11925;48.122;11.560;2023-02-28T00:58:38;7.40;73.50
23497;DHT22;11925;48.122;11.560;2023-02-28T01:01:07;7.40;73.50
23497;DHT22;11925;48.122;11.560;2023-02-28T01:03:37;7.30;73.50
23497;DHT22;11925;48.122;11.560;2023-02-28T01:06:06;7.30;73.50
23497;DHT22;11925;48.122;11.560;2023-02-28T01:08:36;7.40;73.80
23497;DHT22;11925;48.122;11.560;2023-02-28T01:11:08;7.40;73.60
23497;DHT22;11925;48.122;11.560;2023-02-28T01:13:39;7.40;74.00
23497;DHT22;11925;48.122;11.560;2023-02-28T01:16:08;7.40;73.60
23497;DHT22;11925;48.122;11.560;2023-02-28T01:18:37;7.40;73.90
23497;DHT22;11925;48.122;11.560;2023-02-28T01:21:05;7.40;73.50
23497;DHT22;11925;48.122;11.560;2023-02-28T01:23:35;7.40;73.50
23497;DHT22;11925;48.122;11.560;2023-02-28T01:26:04;7.40;73.80
23497;DHT22;11925;48.122;11.560;2023-02-28T01:28:33;7.40;73.90
23497;DHT22;11925;48.122;11.560;2023-02-28T01:31:02;7.40;73.90
23497;DHT22;11925;48.122;11.560;2023-02-28T01:33:30;7.40;73.80
23497;DHT22;11925;48.122;11.560;2023-02-28T01:35:59;7.40;73.90
23497;DHT22;11925;48.122;11.560;2023-02-28T01:38:29;7.40;74.00
23497;DHT22;11925;48.122;11.560;2023-02-28T01:40:59;7.40;74.20
23497;DHT22;11925;48.122;11.560;2023-02-28T01:43:29;7.40;74.20
23497;DHT22;11925;48.122;11.560;2023-02-28T01:45:59;7.40;74.00
23497;DHT22;11925;48.122;11.560;2023-02-28T01:48:30;7.30;73.90
23497;DHT22;11925;48.122;11.560;2023-02-28T01:51:01;7.40;74.10
23497;DHT22;11925;48.122;11.560;2023-02-28T01:53:34;7.40;74.30
23497;DHT22;11925;48.122;11.560;2023-02-28T01:56:07;7.40;74.30
23497;DHT22;11925;48.122;11.560;2023-02-28T01:58:36;7.40;73.70
23497;DHT22;11925;48.122;11.560;2023-02-28T02:01:07;7.40;73.80
23497;DHT22;11925;48.122;11.560;2023-02-28T02:03:36;7.40;74.20
23497;DHT22;11925;48.122;11.560;2023-02-28T02:06:04;7.40;74.00
23497;DHT22;11925;48.122;11.560;2023-02-28T02:08:34;7.40;74.20
23497;DHT22;11925;48.122;11.560;2023-02-28T02:11:10;7.40;73.90
23497;DHT22;11925;48.122;11.560;2023-02-28T02:14:07;7.30;73.80
23497;DHT22;11925;48.122;11.560;2023-02-28T02:16:48;7.40;73.80
23497;DHT22;11925;48.122;11.560;2023-02-28T02:19:50;7.40;74.10
23497;DHT22;11925;48.122;11.560;2023-02-28T02:22:39;7.40;74.10
23497;DHT22;11925;48.122;11.560;2023-02-28T02:25:25;7.40;73.90
23497;DHT22;11925;48.122;11.560;2023-02-28T02:28:24;7.40;73.80
23497;DHT22;11925;48.122;11.560;2023-02-28T02:34:25;7.30;73.60
23497;DHT22;11925;48.122;11.560;2023-02-28T02:37:03;7.30;73.70
23497;DHT22;11925;48.122;11.560;2023-02-28T02:39:45;7.30;73.70
23497;DHT22;11925;48.122;11.560;2023-02-28T02:42:23;7.30;73.80
23497;DHT22;11925;48.122;11.560;2023-02-28T02:44:57;7.30;73.60
23497;DHT22;11925;48.122;11.560;2023-02-28T02:47:30;7.40;73.90
23497;DHT22;11925;48.122;11.560;2023-02-28T02:50:04;7.40;73.90
23497;DHT22;11925;48.122;11.560;2023-02-28T02:52:38;7.30;73.90
23497;DHT22;11925;48.122;11.560;2023-02-28T02:55:08;7.30;73.80
23497;DHT22;11925;48.122;11.560;2023-02-28T02:57:43;7.30;73.80
23497;DHT22;11925;48.122;11.560;2023-02-28T03:00:16;7.30;74.00
23497;DHT22;11925;48.122;11.560;2023-02-28T03:02:47;7.30;73.90
23497;DHT22;11925;48.122;11.560;2023-02-28T03:05:21;7.30;74.00
23497;DHT22;11925;48.122;11.560;2023-02-28T03:07:49;7.30;73.90
23497;DHT22;11925;48.122;11.560;2023-02-28T03:10:31;7.30;73.80
23497;DHT22;11925;48.122;11.560;2023-02-28T03:13:18;7.30;73.60
23497;DHT22;11925;48.122;11.560;2023-02-28T03:16:15;7.30;73.60
23497;DHT22;11925;48.122;11.560;2023-02-28T03:18:53;7.30;73.70
23497;DHT22;11925;48.122;11.560;2023-02-28T03:21:28;7.30;73.90
23497;DHT22;11925;48.122;11.560;2023-02-28T03:24:04;7.40;73.90
23497;DHT22;11925;48.122;11.560;2023-02-28T03:26:40;7.30;73.80
23497;DHT22;11925;48.122;11.560;2023-02-28T03:29:15;7.30;73.70
23497;DHT22;11925;48.122;11.560;2023-02-28T03:31:50;7.30;73.80
23497;DHT22;11925;48.122;11.560;2023-02-28T03:34:25;7.30;73.80
23497;DHT22;11925;48.122;11.560;2023-02-28T03:37:02;7.30;74.00
23497;DHT22;11925;48.122;11.560;2023-02-28T03:39:37;7.30;74.00
23497;DHT22;11925;48.122;11.560;2023-02-28T03:42:09;7.30;73.60
23497;DHT22;11925;48.122;11.560;2023-02-28T03:44:42;7.30;73.60
23497;DHT22;11925;48.122;11.560;2023-02-28T03:47:12;7.30;73.50
23497;DHT22;11925;48.122;11.560;2023-02-28T03:49:46;7.20;73.40
23497;DHT22;11925;48.122;11.560;2023-02-28T03:52:19;7.30;73.20
23497;DHT22;11925;48.122;11.560;2023-02-28T03:54:53;7.20;73.50
23497;DHT22;11925;48.122;11.560;2023-02-28T03:57:27;7.30;73.70
23497;DHT22;11925;48.122;11.560;2023-02-28T03:59:59;7.30;73.40
23497;DHT22;11925;48.122;11.560;2023-02-28T04:02:38;7.20;73.60
23497;DHT22;11925;48.122;11.560;2023-02-28T04:05:07;7.30;74.00
23497;DHT22;11925;48.122;11.560;2023-02-28T04:07:37;7.20;73.50
23497;DHT22;11925;48.122;11.560;2023-02-28T04:10:06;7.30;73.50
23497;DHT22;11925;48.122;11.560;2023-02-28T04:12:35;7.30;73.50
23497;DHT22;11925;48.122;11.560;2023-02-28T04:15:04;7.30;73.80
23497;DHT22;11925;48.122;11.560;2023-02-28T04:17:32;7.30;73.60
23497;DHT22;11925;48.122;11.560;2023-02-28T04:20:00;7.30;73.60
23497;DHT22;11925;48.122;11.560;2023-02-28T04:22:29;7.20;73.40
23497;DHT22;11925;48.122;11.560;2023-02-28T04:24:59;7.20;73.70
23497;DHT22;11925;48.122;11.560;2023-02-28T04:27:27;7.20;73.80
23497;DHT22;11925;48.122;11.560;2023-02-28T04:29:58;7.20;73.70
23497;DHT22;11925;48.122;11.560;2023-02-28T04:32:26;7.20;73.80
23497;DHT22;11925;48.122;11.560;2023-02-28T04:34:55;7.30;73.80
23497;DHT22;11925;48.122;11.560;2023-02-28T04:37:23;7.30;73.70
23497;DHT22;11925;48.122;11.560;2023-02-28T04:39:55;7.20;73.80
23497;DHT22;11925;48.122;11.560;2023-02-28T04:42:25;7.20;73.80
23497;DHT22;11925;48.122;11.560;2023-02-28T04:44:53;7.20;73.80
23497;DHT22;11925;48.122;11.560;2023-02-28T04:47:21;7.20;73.80
23497;DHT22;11925;48.122;11.560;2023-02-28T04:49:49;7.20;73.80
23497;DHT22;11925;48.122;11.560;2023-02-28T04:52:18;7.20;73.80
23497;DHT22;11925;48.122;11.560;2023-02-28T04:54:46;7.30;73.90
23497;DHT22;11925;48.122;11.560;2023-02-28T04:57:15;7.20;73.80
23497;DHT22;11925;48.122;11.560;2023-02-28T04:59:44;7.20;74.00
23497;DHT22;11925;48.122;11.560;2023-02-28T05:02:13;7.90;74.30
23497;DHT22;11925;48.122;11.560;2023-02-28T05:04:41;7.20;74.00
23497;DHT22;11925;48.122;11.560;2023-02-28T05:07:10;7.20;74.10
23497;DHT22;11925;48.122;11.560;2023-02-28T05:09:38;7.20;74.30
23497;DHT22;11925;48.122;11.560;2023-02-28T05:12:07;7.20;74.10
23497;DHT22;11925;48.122;11.560;2023-02-28T05:14:36;7.20;74.10
23497;DHT22;11925;48.122;11.560;2023-02-28T05:17:06;7.20;74.00
23497;DHT22;11925;48.122;11.560;2023-02-28T05:19:34;7.20;74.00
23497;DHT22;11925;48.122;11.560;2023-02-28T05:22:02;7.20;74.40
23497;DHT22;11925;48.122;11.560;2023-02-28T05:24:30;7.20;74.30
23497;DHT22;11925;48.122;11.560;2023-02-28T05:26:59;7.20;74.10
23497;DHT22;11925;48.122;11.560;2023-02-28T05:29:27;7.20;74.10
23497;DHT22;11925;48.122;11.560;2023-02-28T05:31:56;7.10;74.00
23497;DHT22;11925;48.122;11.560;2023-02-28T05:34:25;7.10;74.00
23497;DHT22;11925;48.122;11.560;2023-02-28T05:36:54;7.20;74.00
23497;DHT22;11925;48.122;11.560;2023-02-28T05:39:22;7.10;74.10
23497;DHT22;11925;48.122;11.560;2023-02-28T05:41:50;7.20;74.10
23497;DHT22;11925;48.122;11.560;2023-02-28T05:44:19;7.20;74.00
23497;DHT22;11925;48.122;11.560;2023-02-28T05:46:47;7.20;74.10
23497;DHT22;11925;48.122;11.560;2023-02-28T05:49:16;7.20;74.20
23497;DHT22;11925;48.122;11.560;2023-02-28T05:51:46;7.20;74.30
23497;DHT22;11925;48.122;11.560;2023-02-28T05:54:14;7.20;74.20
23497;DHT22;11925;48.122;11.560;2023-02-28T06:00:30;7.20;74.50
23497;DHT22;11925;48.122;11.560;2023-02-28T06:02:59;7.20;74.40
23497;DHT22;11925;48.122;11.560;2023-02-28T06:05:29;7.20;74.50
23497;DHT22;11925;48.122;11.560;2023-02-28T06:07:59;7.20;74.30
23497;DHT22;11925;48.122;11.560;2023-02-28T06:10:27;7.20;74.10
23497;DHT22;11925;48.122;11.560;2023-02-28T06:12:55;7.10;74.10
23497;DHT22;11925;48.122;11.560;2023-02-28T06:15:24;7.10;74.10
23497;DHT22;11925;48.122;11.560;2023-02-28T06:17:52;7.20;74.40
23497;DHT22;11925;48.122;11.560;2023-02-28T06:20:24;7.10;74.40
23497;DHT22;11925;48.122;11.560;2023-02-28T06:22:52;7.20;74.50
23497;DHT22;11925;48.122;11.560;2023-02-28T06:25:24;7.20;74.40
23497;DHT22;11925;48.122;11.560;2023-02-28T06:27:53;7.20;74.60
23497;DHT22;11925;48.122;11.560;2023-02-28T06:30:21;7.20;74.50
23497;DHT22;11925;48.122;11.560;2023-02-28T06:32:52;7.20;74.40
23497;DHT22;11925;48.122;11.560;2023-02-28T06:35:20;7.20;74.40
23497;DHT22;11925;48.122;11.560;2023-02-28T06:37:49;7.10;74.30
23497;DHT22;11925;48.122;11.560;2023-02-28T06:40:17;7.10;75.00
23497;DHT22;11925;48.122;11.560;2023-02-28T06:42:47;7.10;74.30
23497;DHT22;11925;48.122;11.560;2023-02-28T06:45:15;7.10;74.30
23497;DHT22;11925;48.122;11.560;2023-02-28T06:47:44;7.10;74.30
23497;DHT22;11925;48.122;11.560;2023-02-28T06:50:12;7.20;75.10
23497;DHT22;11925;48.122;11.560;2023-02-28T06:52:40;7.10;74.00
23497;DHT22;11925;48.122;11.560;2023-02-28T06:55:09;7.10;74.10
23497;DHT22;11925;48.122;11.560;2023-02-28T06:57:37;7.10;74.00
23497;DHT22;11925;48.122;11.560;2023-02-28T07:00:09;7.10;74.00
23497;DHT22;11925;48.122;11.560;2023-02-28T07:02:38;7.10;74.10
23497;DHT22;11925;48.122;11.560;2023-02-28T07:05:06;7.10;74.00
23497;DHT22;11925;48.122;11.560;2023-02-28T07:07:35;7.20;74.00
23497;DHT22;11925;48.122;11.560;2023-02-28T07:10:05;7.10;74.00
23497;DHT22;11925;48.122;11.560;2023-02-28T07:12:34;7.20;74.10
23497;DHT22;11925;48.122;11.560;2023-02-28T07:15:04;7.10;74.00
23497;DHT22;11925;48.122;11.560;2023-02-28T07:17:34;7.10;74.00
23497;DHT22;11925;48.122;11.560;2023-02-28T07:20:03;7.10;74.10
23497;DHT22;11925;48.122;11.560;2023-02-28T07:22:31;7.10;74.10
23497;DHT22;11925;48.122;11.560;2023-02-28T07:25:00;7.10;73.90
23497;DHT22;11925;48.122;11.560;2023-02-28T07:27:28;7.10;73.90
23497;DHT22;11925;48.122;11.560;2023-02-28T07:29:57;7.10;74.00
23497;DHT22;11925;48.122;11.560;2023-02-28T07:32:28;7.10;74.10
23497;DHT22;11925;48.122;11.560;2023-02-28T07:34:57;7.20;74.10
23497;DHT22;11925;48.122;11.560;2023-02-28T07:37:26;7.20;74.10
23497;DHT22;11925;48.122;11.560;2023-02-28T07:39:54;7.20;74.10
23497;DHT22;11925;48.122;11.560;2023-02-28T07:42:22;7.20;74.40
23497;DHT22;11925;48.122;11.560;2023-02-28T07:44:50;7.20;74.40
23497;DHT22;11925;48.122;11.560;2023-02-28T07:47:20;7.10;74.10
23497;DHT22;11925;48.122;11.560;2023-02-28T07:49:51;7.10;74.30
23497;DHT22;11925;48.122;11.560;2023-02-28T07:52:21;7.20;74.30
23497;DHT22;11925;48.122;11.560;2023-02-28T07:54:50;7.20;74.20
23497;DHT22;11925;48.122;11.560;2023-02-28T07:57:19;7.20;74.10
23497;DHT22;11925;48.122;11.560;2023-02-28T07:59:47;7.10;74.00
23497;DHT22;11925;48.122;11.560;2023-02-28T08:02:17;7.20;74.30
23497;DHT22;11925;48.122;11.560;2023-02-28T08:04:45;7.20;74.40
23497;DHT22;11925;48.122;11.560;2023-02-28T08:07:15;7.20;74.30
23497;DHT22;11925;48.122;11.560;2023-02-28T08:09:45;7.10;74.30
23497;DHT22;11925;48.122;11.560;2023-02-28T08:12:13;7.20;74.40
23497;DHT22;11925;48.122;11.560;2023-02-28T08:14:41;7.20;74.40
23497;DHT22;11925;48.122;11.560;2023-02-28T08:17:10;7.20;74.50
23497;DHT22;11925;48.122;11.560;2023-02-28T08:19:39;7.20;74.70
23497;DHT22;11925;48.122;11.560;2023-02-28T08:22:07;7.30;74.70
23497;DHT22;11925;48.122;11.560;2023-02-28T08:24:35;7.20;74.40
23497;DHT22;11925;48.122;11.560;2023-02-28T08:27:05;7.20;74.60
23497;DHT22;11925;48.122;11.560;2023-02-28T08:29:33;7.20;74.50
23497;DHT22;11925;48.122;11.560;2023-02-28T08:32:01;7.20;74.60
23497;DHT22;11925;48.122;11.560;2023-02-28T08:34:30;7.20;74.80
23497;DHT22;11925;48.122;11.560;2023-02-28T08:36:58;7.20;75.00
23497;DHT22;11925;48.122;11.560;2023-02-28T08:39:27;7.20;74.90
23497;DHT22;11925;48.122;11.560;2023-02-28T08:41:55;7.20;74.80
23497;DHT22;11925;48.122;11.560;2023-02-28T08:44:35;7.20;74.50
23497;DHT22;11925;48.122;11.560;2023-02-28T08:47:03;7.30;74.90
23497;DHT22;11925;48.122;11.560;2023-02-28T08:49:31;7.30;74.90
23497;DHT22;11925;48.122;11.560;2023-02-28T08:52:00;7.20;74.70
23497;DHT22;11925;48.122;11.560;2023-02-28T08:54:28;7.20;74.70
23497;DHT22;11925;48.122;11.560;2023-02-28T08:56:58;7.20;74.40
23497;DHT22;11925;48.122;11.560;2023-02-28T08:59:26;7.20;74.70
23497;DHT22;11925;48.122;11.560;2023-02-28T09:01:56;7.20;74.70
23497;DHT22;11925;48.122;11.560;2023-02-28T09:04:24;7.20;74.70
23497;DHT22;11925;48.122;11.560;2023-02-28T09:06:53;7.20;74.60
23497;DHT22;11925;48.122;11.560;2023-02-28T09:09:21;7.20;74.50
23497;DHT22;11925;48.122;11.560;2023-02-28T09:11:49;7.20;74.70
23497;DHT22;11925;48.122;11.560;2023-02-28T09:14:17;7.20;74.30
23497;DHT22;11925;48.122;11.560;2023-02-28T09:16:46;7.20;74.10
23497;DHT22;11925;48.122;11.560;2023-02-28T09:19:16;7.30;73.80
23497;DHT22;11925;48.122;11.560;2023-02-28T09:21:44;7.20;74.00
23497;DHT22;11925;48.122;11.560;2023-02-28T09:24:12;7.20;74.00
23497;DHT22;11925;48.122;11.560;2023-02-28T09:26:42;7.20;74.20
23497;DHT22;11925;48.122;11.560;2023-02-28T09:29:29;7.20;74.50
23497;DHT22;11925;48.122;11.560;2023-02-28T09:31:58;7.30;74.50
23497;DHT22;11925;48.122;11.560;2023-02-28T09:34:28;7.30;74.30
23497;DHT22;11925;48.122;11.560;2023-02-28T09:36:58;7.30;74.30
23497;DHT22;11925;48.122;11.560;2023-02-28T09:39:26;7.20;74.40
23497;DHT22;11925;48.122;11.560;2023-02-28T09:41:55;7.20;74.50
23497;DHT22;11925;48.122;11.560;2023-02-28T09:44:28;7.20;74.60
23497;DHT22;11925;48.122;11.560;2023-02-28T09:47:01;7.20;74.70
23497;DHT22;11925;48.122;11.560;2023-02-28T09:49:38;7.20;74.70
23497;DHT22;11925;48.122;11.560;2023-02-28T09:52:10;7.20;74.70
23497;DHT22;11925;48.122;11.560;2023-02-28T09:54:40;7.20;74.70
23497;DHT22;11925;48.122;11.560;2023-02-28T09:57:15;7.30;74.70
23497;DHT22;11925;48.122;11.560;2023-02-28T09:59:54;7.20;74.40
23497;DHT22;11925;48.122;11.560;2023-02-28T10:02:41;7.20;74.10
23497;DHT22;11925;48.122;11.560;2023-02-28T10:05:23;7.20;74.20
23497;DHT22;11925;48.122;11.560;2023-02-28T10:08:01;7.20;74.10
23497;DHT22;11925;48.122;11.560;2023-02-28T10:10:36;7.10;73.90
23497;DHT22;11925;48.122;11.560;2023-02-28T10:13:14;7.20;73.80
23497;DHT22;11925;48.122;11.560;2023-02-28T10:15:45;7.20;73.80
23497;DHT22;11925;48.122;11.560;2023-02-28T10:18:19;7.20;74.10
23497;DHT22;11925;48.122;11.560;2023-02-28T10:20:50;7.20;74.30
23497;DHT22;11925;48.122;11.560;2023-02-28T10:23:21;7.30;74.20
23497;DHT22;11925;48.122;11.560;2023-02-28T10:25:54;7.20;74.20
23497;DHT22;11925;48.122;11.560;2023-02-28T10:28:25;7.20;74.30
23497;DHT22;11925;48.122;11.560;2023-02-28T10:30:54;7.20;74.10
23497;DHT22;11925;48.122;11.560;2023-02-28T10:33:25;7.20;74.30
23497;DHT22;11925;48.122;11.560;2023-02-28T10:35:57;7.20;74.50
23497;DHT22;11925;48.122;11.560;2023-02-28T10:38:28;7.20;74.40
23497;DHT22;11925;48.122;11.560;2023-02-28T10:41:07;7.20;74.30
23497;DHT22;11925;48.122;11.560;2023-02-28T10:43:36;7.20;74.10
23497;DHT22;11925;48.122;11.560;2023-02-28T10:46:14;7.20;74.10
23497;DHT22;11925;48.122;11.560;2023-02-28T10:49:02;7.10;74.10
23497;DHT22;11925;48.122;11.560;2023-02-28T10:51:37;7.20;74.10
23497;DHT22;11925;48.122;11.560;2023-02-28T10:54:06;7.20;74.10
23497;DHT22;11925;48.122;11.560;2023-02-28T10:56:42;7.20;74.00
23497;DHT22;11925;48.122;11.560;2023-02-28T10:59:28;7.20;73.80
23497;DHT22;11925;48.122;11.560;2023-02-28T11:01:57;7.20;73.80
23497;DHT22;11925;48.122;11.560;2023-02-28T11:04:34;7.20;73.80
23497;DHT22;11925;48.122;11.560;2023-02-28T11:07:16;7.10;73.80
23497;DHT22;11925;48.122;11.560;2023-02-28T11:09:49;7.20;73.80
23497;DHT22;11925;48.122;11.560;2023-02-28T11:12:24;7.20;73.70
23497;DHT22;11925;48.122;11.560;2023-02-28T11:14:55;7.10;73.80
23497;DHT22;11925;48.122;11.560;2023-02-28T11:17:26;7.10;73.70
23497;DHT22;11925;48.122;11.560;2023-02-28T11:19:57;7.20;73.80
23497;DHT22;11925;48.122;11.560;2023-02-28T11:22:33;7.10;73.80
23497;DHT22;11925;48.122;11.560;2023-02-28T11:25:09;7.20;73.80
23497;DHT22;11925;48.122;11.560;2023-02-28T11:27:47;7.20;74.00
23497;DHT22;11925;48.122;11.560;2023-02-28T11:30:40;7.20;74.10
23497;DHT22;11925;48.122;11.560;2023-02-28T11:33:27;7.20;74.00
23497;DHT22;11925;48.122;11.560;2023-02-28T11:35:58;7.10;73.70
23497;DHT22;11925;48.122;11.560;2023-02-28T11:38:31;7.10;73.70
23497;DHT22;11925;48.122;11.560;2023-02-28T11:41:28;7.20;73.90
23497;DHT22;11925;48.122;11.560;2023-02-28T11:44:20;7.20;74.10
23497;DHT22;11925;48.122;11.560;2023-02-28T11:46:52;7.10;74.00
23497;DHT22;11925;48.122;11.560;2023-02-28T11:49:33;7.20;74.00
23497;DHT22;11925;48.122;11.560;2023-02-28T11:52:10;7.20;74.00
23497;DHT22;11925;48.122;11.560;2023-02-28T11:55:09;7.20;74.00
23497;DHT22;11925;48.122;11.560;2023-02-28T11:57:52;7.20;74.00
23497;DHT22;11925;48.122;11.560;2023-02-28T12:00:40;7.20;74.30
23497;DHT22;11925;48.122;11.560;2023-02-28T12:03:17;7.20;74.30
23497;DHT22;11925;48.122;11.560;2023-02-28T12:05:57;7.20;74.40
23497;DHT22;11925;48.122;11.560;2023-02-28T12:08:40;7.30;74.30
23497;DHT22;11925;48.122;11.560;2023-02-28T12:11:19;7.20;74.50
23497;DHT22;11925;48.122;11.560;2023-02-28T12:13:57;7.20;74.40
23497;DHT22;11925;48.122;11.560;2023-02-28T12:16:48;7.20;74.50
23497;DHT22;11925;48.122;11.560;2023-02-28T12:19:23;7.20;74.60
23497;DHT22;11925;48.122;11.560;2023-02-28T12:22:17;7.20;74.40
23497;DHT22;11925;48.122;11.560;2023-02-28T12:28:00;7.20;74.50
23497;DHT22;11925;48.122;11.560;2023-02-28T12:30:29;7.20;74.50
23497;DHT22;11925;48.122;11.560;2023-02-28T12:33:04;7.20;74.40
23497;DHT22;11925;48.122;11.560;2023-02-28T12:35:37;7.20;74.30
23497;DHT22;11925;48.122;11.560;2023-02-28T12:38:10;7.20;74.30
23497;DHT22;11925;48.122;11.560;2023-02-28T12:40:44;7.20;74.40
23497;DHT22;11925;48.122;11.560;2023-02-28T12:43:16;7.20;74.40
23497;DHT22;11925;48.122;11.560;2023-02-28T12:45:48;7.10;74.30
23497;DHT22;11925;48.122;11.560;2023-02-28T12:48:24;7.10;74.40
23497;DHT22;11925;48.122;11.560;2023-02-28T12:50:54;7.20;74.30
23497;DHT22;11925;48.122;11.560;2023-02-28T12:53:27;7.20;74.40
23497;DHT22;11925;48.122;11.560;2023-02-28T12:56:08;7.20;74.50
23497;DHT22;11925;48.122;11.560;2023-02-28T12:58:41;7.20;74.50
23497;DHT22;11925;48.122;11.560;2023-02-28T13:01:36;7.20;74.50
23497;DHT22;11925;48.122;11.560;2023-02-28T13:04:23;7.20;75.20
23497;DHT22;11925;48.122;11.560;2023-02-28T13:07:08;7.20;74.50
23497;DHT22;11925;48.122;11.560;2023-02-28T13:09:41;7.20;74.70
23497;DHT22;11925;48.122;11.560;2023-02-28T13:12:13;7.30;74.80
23497;DHT22;11925;48.122;11.560;2023-02-28T13:14:43;7.30;74.90
23497;DHT22;11925;48.122;11.560;2023-02-28T13:17:15;7.30;74.90
23497;DHT22;11925;48.122;11.560;2023-02-28T13:19:56;7.20;74.90
23497;DHT22;11925;48.122;11.560;2023-02-28T13:22:40;7.20;74.80
23497;DHT22;11925;48.122;11.560;2023-02-28T13:34:39;7.20;74.70
23497;DHT22;11925;48.122;11.560;2023-02-28T13:37:33;7.20;74.50
23497;DHT22;11925;48.122;11.560;2023-02-28T13:40:27;7.20;74.60
23497;DHT22;11925;48.122;11.560;2023-02-28T13:42:56;7.20;74.50
23497;DHT22;11925;48.122;11.560;2023-02-28T13:45:26;7.20;74.70
23497;DHT22;11925;48.122;11.560;2023-02-28T13:47:58;7.20;74.80
23497;DHT22;11925;48.122;11.560;2023-02-28T13:50:32;7.20;74.70
23497;DHT22;11925;48.122;11.560;2023-02-28T13:56:16;7.20;74.70
23497;DHT22;11925;48.122;11.560;2023-02-28T13:58:54;7.20;74.80
23497;DHT22;11925;48.122;11.560;2023-02-28T14:01:49;7.20;74.80
23497;DHT22;11925;48.122;11.560;2023-02-28T14:04:48;7.20;74.90
23497;DHT22;11925;48.122;11.560;2023-02-28T14:07:22;7.30;74.90
23497;DHT22;11925;48.122;11.560;2023-02-28T14:09:56;7.20;74.90
23497;DHT22;11925;48.122;11.560;2023-02-28T14:12:53;7.30;75.00
23497;DHT22;11925;48.122;11.560;2023-02-28T14:18:25;7.30;75.20
23497;DHT22;11925;48.122;11.560;2023-02-28T14:21:14;7.30;75.30
23497;DHT22;11925;48.122;11.560;2023-02-28T14:24:03;7.30;75.20
23497;DHT22;11925;48.122;11.560;2023-02-28T14:27:05;7.30;75.30
23497;DHT22;11925;48.122;11.560;2023-02-28T14:30:02;7.30;75.20
23497;DHT22;11925;48.122;11.560;2023-02-28T14:32:40;7.40;75.40
23497;DHT22;11925;48.122;11.560;2023-02-28T14:35:19;7.30;75.40
23497;DHT22;11925;48.122;11.560;2023-02-28T14:37:48;7.30;75.30
23497;DHT22;11925;48.122;11.560;2023-02-28T14:40:22;7.30;75.50
23497;DHT22;11925;48.122;11.560;2023-02-28T14:42:56;7.30;75.40
23497;DHT22;11925;48.122;11.560;2023-02-28T14:45:24;7.30;75.30
23497;DHT22;11925;48.122;11.560;2023-02-28T14:47:55;7.30;75.40
23497;DHT22;11925;48.122;11.560;2023-02-28T14:50:27;7.30;75.30
23497;DHT22;11925;48.122;11.560;2023-02-28T14:52:57;7.30;75.30
23497;DHT22;11925;48.122;11.560;2023-02-28T14:55:29;7.30;75.30
23497;DHT22;11925;48.122;11.560;2023-02-28T14:57:59;7.40;75.30
23497;DHT22;11925;48.122;11.560;2023-02-28T15:00:30;7.30;75.30
23497;DHT22;11925;48.122;11.560;2023-02-28T15:03:01;7.30;75.40
23497;DHT22;11925;48.122;11.560;2023-02-28T15:05:31;7.30;75.30
23497;DHT22;11925;48.122;11.560;2023-02-28T15:08:10;7.30;75.40
23497;DHT22;11925;48.122;11.560;2023-02-28T15:10:43;7.30;75.30
23497;DHT22;11925;48.122;11.560;2023-02-28T15:13:14;7.30;75.20
23497;DHT22;11925;48.122;11.560;2023-02-28T15:15:47;7.30;75.00
23497;DHT22;11925;48.122;11.560;2023-02-28T15:18:39;7.30;75.00
23497;DHT22;11925;48.122;11.560;2023-02-28T15:21:12;7.30;74.90
23497;DHT22;11925;48.122;11.560;2023-02-28T15:23:46;7.30;75.00
23497;DHT22;11925;48.122;11.560;2023-02-28T15:26:19;7.30;75.20
23497;DHT22;11925;48.122;11.560;2023-02-28T15:28:59;7.30;75.30
23497;DHT22;11925;48.122;11.560;2023-02-28T15:31:30;7.40;75.30
23497;DHT22;11925;48.122;11.560;2023-02-28T15:34:21;7.40;75.40
23497;DHT22;11925;48.122;11.560;2023-02-28T15:36:54;7.40;75.50
23497;DHT22;11925;48.122;11.560;2023-02-28T15:39:24;7.40;75.40
23497;DHT22;11925;48.122;11.560;2023-02-28T15:42:16;7.40;75.60
23497;DHT22;11925;48.122;11.560;2023-02-28T15:44:46;7.40;75.30
23497;DHT22;11925;48.122;11.560;2023-02-28T15:47:17;7.30;75.20
23497;DHT22;11925;48.122;11.560;2023-02-28T15:49:49;7.30;75.30
23497;DHT22;11925;48.122;11.560;2023-02-28T15:52:29;7.30;75.20
23497;DHT22;11925;48.122;11.560;2023-02-28T15:55:08;7.40;75.40
23497;DHT22;11925;48.122;11.560;2023-02-28T15:57:39;7.30;75.30
23497;DHT22;11925;48.122;11.560;2023-02-28T16:00:12;7.40;75.40
23497;DHT22;11925;48.122;11.560;2023-02-28T16:02:41;7.40;75.40
23497;DHT22;11925;48.122;11.560;2023-02-28T16:05:28;7.40;75.60
23497;DHT22;11925;48.122;11.560;2023-02-28T16:08:11;7.40;75.40
23497;DHT22;11925;48.122;11.560;2023-02-28T16:10:40;7.30;75.40
23497;DHT22;11925;48.122;11.560;2023-02-28T16:13:11;7.30;75.30
23497;DHT22;11925;48.122;11.560;2023-02-28T16:15:43;7.40;75.40
23497;DHT22;11925;48.122;11.560;2023-02-28T16:18:12;7.40;75.50
23497;DHT22;11925;48.122;11.560;2023-02-28T16:20:40;7.40;75.60
23497;DHT22;11925;48.122;11.560;2023-02-28T16:23:11;7.40;75.60
23497;DHT22;11925;48.122;11.560;2023-02-28T16:25:42;7.40;75.80
23497;DHT22;11925;48.122;11.560;2023-02-28T16:28:15;7.40;75.70
23497;DHT22;11925;48.122;11.560;2023-02-28T16:30:45;7.40;75.70
23497;DHT22;11925;48.122;11.560;2023-02-28T16:33:15;7.40;75.70